createdAt,value
2018-07-15T09:34:05.404Z,4.13
2018-07-15T09:36:33.759Z,4.40
2018-07-15T09:39:02.109Z,3.70
2018-07-15T09:41:30.710Z,3.80
2018-07-15T09:43:58.977Z,4.03
2018-07-15T09:46:27.361Z,3.80
2018-07-15T09:48:55.747Z,4.00
2018-07-15T09:51:24.109Z,3.70
2018-07-15T09:53:52.384Z,3.90
2018-07-15T09:56:20.662Z,3.83
2018-07-15T09:58:49.154Z,4.27
2018-07-15T10:01:17.313Z,3.73
2018-07-15T10:03:45.596Z,4.20
2018-07-15T10:06:13.768Z,5.43
2018-07-15T10:08:42.055Z,7.13
2018-07-15T10:11:10.318Z,4.03
2018-07-15T10:13:38.597Z,4.50
2018-07-15T10:16:06.865Z,3.90
2018-07-15T10:18:35.149Z,3.93
2018-07-15T10:21:03.428Z,4.00
2018-07-15T10:23:31.500Z,3.93
2018-07-15T10:25:59.453Z,3.80
2018-07-15T10:28:27.286Z,4.03
2018-07-15T10:30:55.501Z,3.93
2018-07-15T10:33:23.772Z,4.77
2018-07-15T10:35:52.046Z,4.77
2018-07-15T10:38:20.320Z,4.20
2018-07-15T10:40:48.705Z,4.60
2018-07-15T10:43:17.081Z,4.20
2018-07-15T10:45:45.462Z,4.13
2018-07-15T10:48:13.725Z,4.43
2018-07-15T10:50:42.014Z,3.97
2018-07-15T10:53:10.399Z,4.20
2018-07-15T10:55:38.666Z,4.87
2018-07-15T10:58:06.942Z,4.70
2018-07-15T11:00:35.310Z,4.17
2018-07-15T11:03:03.604Z,3.87
2018-07-15T11:05:31.975Z,5.13
2018-07-15T11:08:00.239Z,4.40
2018-07-15T11:10:28.216Z,4.50
2018-07-15T11:12:56.586Z,4.40
2018-07-15T11:15:24.726Z,4.17
2018-07-15T11:17:53.034Z,3.90
2018-07-15T11:20:21.314Z,4.03
2018-07-15T11:22:49.684Z,3.53
2018-07-15T11:25:17.866Z,4.27
2018-07-15T11:27:46.247Z,4.07
2018-07-15T11:30:14.617Z,3.50
2018-07-15T11:32:42.483Z,3.50
2018-07-15T11:35:10.848Z,3.60
2018-07-15T11:37:39.123Z,3.97
2018-07-15T11:40:07.530Z,3.90
2018-07-15T11:42:35.698Z,3.53
2018-07-15T11:45:04.295Z,3.63
2018-07-15T11:47:32.646Z,3.70
2018-07-15T11:50:00.930Z,3.80
2018-07-15T11:52:29.193Z,3.20
2018-07-15T11:54:57.508Z,3.67
2018-07-15T11:57:25.858Z,3.33
2018-07-15T11:59:54.239Z,3.20
2018-07-15T12:02:22.746Z,3.80
2018-07-15T12:04:50.987Z,3.70
2018-07-15T12:07:19.258Z,5.20
2018-07-15T12:09:47.584Z,4.20
2018-07-15T12:12:15.904Z,4.80
2018-07-15T12:14:44.199Z,3.73
2018-07-15T12:17:12.677Z,3.53
2018-07-15T12:19:40.857Z,3.43
2018-07-15T12:22:09.227Z,3.50
2018-07-15T12:24:37.654Z,3.40
2018-07-15T12:27:05.865Z,3.27
2018-07-15T12:29:34.255Z,3.33
2018-07-15T12:32:02.533Z,3.10
2018-07-15T12:34:30.569Z,3.07
2018-07-15T12:36:59.090Z,3.67
2018-07-15T12:39:27.354Z,2.60
2018-07-15T12:41:55.752Z,3.00
2018-07-15T12:44:24.148Z,3.07
2018-07-15T12:46:52.416Z,3.30
2018-07-15T12:49:20.663Z,3.37
2018-07-15T12:51:49.007Z,3.50
2018-07-15T12:54:17.455Z,2.80
2018-07-15T12:56:45.936Z,3.20
2018-07-15T12:59:14.318Z,3.33
2018-07-15T13:01:42.895Z,2.80
2018-07-15T13:04:11.275Z,2.90
2018-07-15T13:06:39.867Z,2.80
2018-07-15T13:09:08.331Z,3.00
2018-07-15T13:11:36.634Z,3.03
2018-07-15T13:14:04.880Z,3.37
2018-07-15T13:16:33.266Z,3.20
2018-07-15T13:19:01.678Z,3.50
2018-07-15T13:21:29.815Z,3.27
2018-07-15T13:23:58.287Z,3.23
2018-07-15T13:26:26.699Z,3.30
2018-07-15T13:28:55.142Z,3.90
2018-07-15T13:31:23.421Z,3.10
2018-07-15T13:33:51.954Z,3.63
2018-07-15T13:36:20.190Z,3.00
2018-07-15T13:38:48.671Z,3.10
2018-07-15T13:41:16.962Z,3.00
2018-07-15T13:43:45.524Z,3.03
2018-07-15T13:46:13.862Z,3.20
2018-07-15T13:48:42.387Z,3.13
2018-07-15T13:51:10.643Z,3.13
2018-07-15T13:53:39.244Z,3.00
2018-07-15T13:56:07.618Z,3.33
2018-07-15T13:58:36.027Z,3.40
2018-07-15T14:01:04.475Z,2.90
2018-07-15T14:03:32.742Z,2.97
2018-07-15T14:06:01.032Z,2.97
2018-07-15T14:08:29.302Z,3.10
2018-07-15T14:10:57.671Z,2.90
2018-07-15T14:13:25.979Z,3.07
2018-07-15T14:15:54.406Z,3.50
2018-07-15T14:18:22.916Z,3.03
2018-07-15T14:20:51.199Z,3.43
2018-07-15T14:23:19.462Z,3.37
2018-07-15T14:25:47.743Z,2.83
2018-07-15T14:28:16.210Z,4.90
2018-07-15T14:30:44.569Z,3.87
2018-07-15T14:33:13.082Z,3.60
2018-07-15T14:35:41.491Z,3.10
2018-07-15T14:38:09.529Z,3.07
2018-07-15T14:40:37.996Z,3.30
2018-07-15T14:43:06.527Z,3.43
2018-07-15T14:45:40.176Z,2.80
2018-07-15T14:48:08.394Z,2.90
2018-07-15T14:50:36.740Z,2.77
2018-07-15T14:53:05.106Z,4.50
2018-07-15T14:55:33.418Z,3.07
2018-07-15T14:58:01.768Z,3.00
2018-07-15T15:00:29.846Z,2.90
2018-07-15T15:02:58.142Z,2.87
2018-07-15T15:05:26.604Z,3.03
2018-07-15T15:07:54.522Z,3.00
2018-07-15T15:10:23.091Z,2.90
2018-07-15T15:12:51.326Z,3.47
2018-07-15T15:15:19.402Z,3.00
2018-07-15T15:17:47.636Z,2.97
2018-07-15T15:20:16.203Z,3.00
2018-07-15T15:22:44.199Z,3.30
2018-07-15T15:25:12.630Z,4.50
2018-07-15T15:27:41.081Z,2.87
2018-07-15T15:30:09.392Z,2.77
2018-07-15T15:32:37.631Z,2.50
2018-07-15T15:35:06.009Z,2.60
2018-07-15T15:37:34.498Z,4.00
2018-07-15T15:40:02.875Z,3.67
2018-07-15T15:42:31.196Z,3.13
2018-07-15T15:44:59.524Z,3.10
2018-07-15T15:47:28.001Z,3.00
2018-07-15T15:49:56.298Z,2.70
2018-07-15T15:52:24.853Z,2.93
2018-07-15T15:54:53.240Z,2.90
2018-07-15T15:57:21.534Z,3.90
2018-07-15T15:59:49.985Z,3.23
2018-07-15T16:02:18.260Z,2.90
2018-07-15T16:04:46.883Z,2.93
2018-07-15T16:07:15.119Z,2.80
2018-07-15T16:09:43.606Z,2.90
2018-07-15T16:12:12.010Z,3.03
2018-07-15T16:14:40.355Z,2.90
2018-07-15T16:17:08.767Z,4.67
2018-07-15T16:19:37.143Z,3.83
2018-07-15T16:22:05.593Z,3.23
2018-07-15T16:24:34.919Z,3.00
2018-07-15T16:27:03.328Z,2.87
2018-07-15T16:29:31.647Z,3.23
2018-07-15T16:31:59.921Z,2.93
2018-07-15T16:34:28.325Z,3.10
2018-07-15T16:36:56.889Z,3.10
2018-07-15T16:39:25.151Z,2.60
2018-07-15T16:41:53.504Z,3.10
2018-07-15T16:44:21.767Z,3.10
2018-07-15T16:46:50.415Z,3.93
2018-07-15T16:49:18.882Z,3.70
2018-07-15T16:51:47.361Z,3.27
2018-07-15T16:54:15.733Z,3.10
2018-07-15T16:56:44.116Z,2.73
2018-07-15T16:59:12.495Z,3.20
2018-07-15T17:01:40.982Z,3.43
2018-07-15T17:04:09.344Z,3.53
2018-07-15T17:06:37.724Z,2.90
2018-07-15T17:09:06.373Z,3.23
2018-07-15T17:11:35.155Z,3.17
2018-07-15T17:14:03.500Z,3.53
2018-07-15T17:16:31.474Z,3.37
2018-07-15T17:18:59.824Z,3.70
2018-07-15T17:21:28.094Z,3.93
2018-07-15T17:23:56.019Z,4.13
2018-07-15T17:26:24.337Z,4.00
2018-07-15T17:28:52.716Z,3.63
2018-07-15T17:31:20.591Z,3.47
2018-07-15T17:33:48.826Z,3.63
2018-07-15T17:36:17.506Z,3.67
2018-07-15T17:38:45.381Z,3.60
2018-07-15T17:41:13.749Z,3.90
2018-07-15T17:43:42.196Z,3.93
2018-07-15T17:46:10.309Z,4.80
2018-07-15T17:48:38.617Z,4.77
2018-07-15T17:51:06.984Z,5.30
2018-07-15T17:53:35.871Z,5.20
2018-07-15T17:56:04.357Z,5.13
2018-07-15T17:58:32.706Z,5.27
2018-07-15T18:01:01.159Z,4.53
2018-07-15T18:03:29.501Z,5.03
2018-07-15T18:05:58.066Z,4.60
2018-07-15T18:08:26.389Z,5.50
2018-07-15T18:10:54.940Z,5.10
2018-07-15T18:13:23.182Z,4.87
2018-07-15T18:15:51.726Z,4.93
2018-07-15T18:18:20.177Z,4.53
2018-07-15T18:20:48.553Z,5.03
2018-07-15T18:23:17.035Z,5.13
2018-07-15T18:25:45.310Z,4.60
2018-07-15T18:28:13.718Z,5.00
2018-07-15T18:30:42.071Z,5.07
2018-07-15T18:33:10.333Z,5.73
2018-07-15T18:35:38.699Z,5.13
2018-07-15T18:38:07.193Z,4.80
2018-07-15T18:40:35.582Z,4.33
2018-07-15T18:43:04.101Z,4.67
2018-07-15T18:45:32.440Z,4.77
2018-07-15T18:48:00.890Z,5.40
2018-07-15T18:50:29.293Z,5.23
2018-07-15T18:52:57.673Z,5.43
2018-07-15T18:55:26.292Z,5.63
2018-07-15T18:57:54.490Z,5.27
2018-07-15T19:00:22.776Z,4.90
2018-07-15T19:02:50.652Z,5.70
2018-07-15T19:05:18.818Z,5.20
2018-07-15T19:07:47.198Z,5.37
2018-07-15T19:10:15.262Z,5.50
2018-07-15T19:12:43.583Z,4.83
2018-07-15T19:15:11.626Z,4.90
2018-07-15T19:17:39.517Z,5.07
2018-07-15T19:20:07.849Z,5.07
2018-07-15T19:22:36.161Z,4.67
2018-07-15T19:25:04.126Z,5.30
2018-07-15T19:27:32.470Z,5.03
2018-07-15T19:30:00.779Z,5.77
2018-07-15T19:32:28.662Z,5.30
2018-07-15T19:34:56.778Z,5.90
2018-07-15T19:37:25.089Z,5.87
2018-07-15T19:39:53.339Z,5.80
2018-07-15T19:42:21.604Z,4.93
2018-07-15T19:44:49.935Z,4.77
2018-07-15T19:47:18.149Z,5.20
2018-07-15T19:49:46.430Z,6.20
2018-07-15T19:52:14.745Z,6.13
2018-07-15T19:54:43.187Z,6.70
2018-07-15T19:57:11.469Z,4.77
2018-07-15T19:59:39.771Z,4.23
2018-07-15T20:02:08.018Z,4.37
2018-07-15T20:04:36.301Z,4.57
2018-07-15T20:07:04.606Z,4.20
2018-07-15T20:09:32.739Z,4.40
2018-07-15T20:12:01.023Z,4.70
2018-07-15T20:14:29.330Z,4.80
2018-07-15T20:16:57.674Z,6.40
2018-07-15T20:19:26.045Z,4.90
2018-07-15T20:21:54.353Z,5.83
2018-07-15T20:24:22.813Z,4.20
2018-07-15T20:26:51.077Z,4.13
2018-07-15T20:29:19.385Z,4.33
2018-07-15T20:31:47.725Z,4.53
2018-07-15T20:34:16.005Z,4.47
2018-07-15T20:36:44.313Z,4.17
2018-07-15T20:39:12.650Z,4.00
2018-07-15T20:41:40.929Z,3.93
2018-07-15T20:44:09.479Z,4.20
2018-07-15T20:46:37.618Z,3.77
2018-07-15T20:49:05.962Z,3.87
2018-07-15T20:51:34.163Z,4.10
2018-07-15T20:54:02.514Z,3.90
2018-07-15T20:56:30.594Z,3.97
2018-07-15T20:58:58.759Z,4.33
2018-07-15T21:01:27.041Z,3.90
2018-07-15T21:03:59.285Z,4.10
2018-07-15T21:06:27.817Z,4.20
2018-07-15T21:08:56.155Z,3.73
2018-07-15T21:11:24.573Z,4.17
2018-07-15T21:13:52.616Z,4.27
2018-07-15T21:16:21.255Z,4.40
2018-07-15T21:18:49.738Z,4.30
2018-07-15T21:21:17.984Z,4.07
2018-07-15T21:23:46.535Z,4.20
2018-07-15T21:26:15.045Z,4.30
2018-07-15T21:28:43.218Z,4.27
2018-07-15T21:31:11.805Z,4.10
2018-07-15T21:33:40.496Z,4.40
2018-07-15T21:42:57.091Z,4.63
2018-07-15T21:45:25.718Z,4.23
2018-07-15T21:47:54.298Z,3.90
2018-07-15T21:50:22.879Z,4.57
2018-07-15T21:52:51.527Z,4.50
2018-07-15T21:55:20.353Z,4.13
2018-07-15T21:57:48.796Z,4.10
2018-07-15T22:00:17.522Z,4.10
2018-07-15T22:02:46.404Z,4.30
2018-07-15T22:05:15.092Z,4.30
2018-07-15T22:07:54.248Z,3.73
2018-07-15T22:10:42.278Z,4.20
2018-07-15T22:13:10.536Z,4.23
2018-07-15T22:15:39.020Z,4.23
2018-07-15T22:18:07.358Z,4.50
2018-07-15T22:20:36.079Z,4.43
2018-07-15T22:23:04.564Z,4.20
2018-07-15T22:25:32.910Z,4.13
2018-07-15T22:28:01.641Z,4.70
2018-07-15T22:30:29.973Z,4.47
2018-07-15T22:32:58.346Z,4.37
2018-07-15T22:35:26.671Z,4.27
2018-07-15T22:37:54.998Z,4.30
2018-07-15T22:40:23.269Z,4.30
2018-07-15T22:42:51.661Z,3.83
2018-07-15T22:45:19.915Z,4.50
2018-07-15T22:47:48.238Z,4.10
2018-07-15T22:50:16.473Z,3.77
2018-07-15T22:52:44.766Z,3.90
2018-07-15T22:55:13.074Z,3.97
2018-07-15T22:57:41.414Z,4.07
2018-07-15T23:00:09.781Z,4.17
2018-07-15T23:02:38.195Z,4.00
2018-07-15T23:05:44.625Z,4.53
2018-07-15T23:08:12.948Z,4.30
2018-07-15T23:10:41.186Z,4.10
2018-07-15T23:13:10.031Z,3.70
2018-07-15T23:15:38.761Z,4.40
2018-07-15T23:18:07.045Z,3.73
2018-07-15T23:20:36.066Z,4.13
2018-07-15T23:23:05.209Z,4.77
2018-07-15T23:25:33.649Z,4.00
2018-07-15T23:28:02.333Z,4.07
2018-07-15T23:30:32.306Z,4.23
2018-07-15T23:33:00.933Z,3.80
2018-07-15T23:35:29.265Z,4.20
2018-07-15T23:37:57.485Z,4.20
2018-07-15T23:40:25.913Z,4.07
2018-07-15T23:42:55.020Z,4.00
2018-07-15T23:45:24.102Z,4.20
2018-07-15T23:47:52.633Z,4.20
2018-07-15T23:50:21.097Z,4.10
2018-07-15T23:52:49.378Z,4.30
2018-07-15T23:55:17.723Z,3.93
2018-07-15T23:57:46.041Z,4.00
